Time;durP1;ratioP1;P1;durP2;ratioP2;P2;SDS_P1;SDS_P2;PMS_P1;PMS_P2;Temp;Humidity;BMP_temperature;BMP_pressure;BME280_temperature;BME280_humidity;BME280_pressure;Samples;Min_cycle;Max_cycle;Signal;HPM_P1;HPM_P2
2022/06/12 00:01:52;;;;;;;1.70;1.60;;;19.50;91.80;;;;;;5011887;28;20384;-70
2022/06/12 00:04:56;;;;;;;4.90;1.52;;;19.50;91.60;;;;;;5011176;28;20580;-70
2022/06/12 00:08:02;;;;;;;2.33;1.55;;;19.40;91.60;;;;;;5010784;28;20061;-70
2022/06/12 00:11:09;;;;;;;2.20;1.50;;;19.40;91.70;;;;;;5011721;28;20508;-70
2022/06/12 00:14:15;;;;;;;5.25;1.75;;;19.40;91.80;;;;;;5015716;28;20052;-70
2022/06/12 00:17:19;;;;;;;2.92;1.75;;;19.40;91.20;;;;;;5017480;28;20053;-69
2022/06/12 00:20:25;;;;;;;5.22;1.70;;;19.40;91.30;;;;;;5031408;28;20048;-70
2022/06/12 00:23:29;;;;;;;2.42;1.67;;;19.40;92.00;;;;;;5014894;28;20479;-70
2022/06/12 00:26:37;;;;;;;3.05;1.65;;;19.30;91.30;;;;;;5010551;28;20052;-69
2022/06/12 00:29:42;;;;;;;3.78;1.65;;;19.00;91.70;;;;;;5010910;28;20380;-70
2022/06/12 00:32:52;;;;;;;2.53;1.60;;;18.90;92.00;;;;;;5030092;28;20076;-70
2022/06/12 00:35:56;;;;;;;2.30;1.85;;;18.90;92.00;;;;;;5022386;28;20053;-70
2022/06/12 00:39:01;;;;;;;2.00;1.70;;;18.90;92.00;;;;;;5011144;28;20499;-70
2022/06/12 00:42:07;;;;;;;1.95;1.48;;;18.90;91.90;;;;;;5010600;28;20052;-70
2022/06/12 00:45:39;;;;;;;3.63;1.90;;;18.90;91.70;;;;;;5015005;28;20488;-70
2022/06/12 00:48:43;;;;;;;2.47;1.77;;;18.90;92.20;;;;;;5010787;28;20049;-70
2022/06/12 00:51:53;;;;;;;3.65;2.05;;;18.80;92.70;;;;;;5010673;28;20052;-70
2022/06/12 00:55:01;;;;;;;2.35;1.65;;;18.80;93.00;;;;;;5010779;28;20045;-70
2022/06/12 00:58:09;;;;;;;2.20;1.83;;;18.70;93.10;;;;;;5009426;28;20057;-70
2022/06/12 01:01:45;;;;;;;2.40;1.67;;;18.70;92.80;;;;;;5010952;28;20480;-70
2022/06/12 01:08:14;;;;;;;2.60;1.80;;;18.80;92.10;;;;;;5009978;28;20060;-70
2022/06/12 01:11:22;;;;;;;3.72;1.65;;;18.80;92.50;;;;;;5009588;28;20045;-70
2022/06/12 01:14:31;;;;;;;3.58;1.83;;;18.80;92.20;;;;;;5011064;28;20100;-70
2022/06/12 01:17:37;;;;;;;5.20;2.50;;;18.90;92.30;;;;;;5009947;28;20049;-70
2022/06/12 01:20:52;;;;;;;4.63;1.83;;;18.90;92.10;;;;;;5012464;28;20408;-68
2022/06/12 01:24:12;;;;;;;7.35;1.85;;;18.90;92.90;;;;;;5014200;28;20364;-69
2022/06/12 01:27:40;;;;;;;2.05;1.60;;;18.60;93.00;;;;;;5014618;28;20053;-70
2022/06/12 01:31:18;;;;;;;3.30;1.80;;;18.50;93.30;;;;;;5030622;28;20060;-70
2022/06/12 01:35:16;;;;;;;2.05;1.80;;;18.40;93.60;;;;;;5028671;28;20048;-70
2022/06/12 01:38:35;;;;;;;2.60;1.80;;;18.40;94.20;;;;;;4941796;29;20191;-69
2022/06/12 01:42:00;;;;;;;3.20;1.83;;;18.30;94.00;;;;;;4933971;28;20033;-70
2022/06/12 01:45:18;;;;;;;2.30;1.90;;;18.30;94.70;;;;;;5034287;28;20036;-70
2022/06/12 01:48:43;;;;;;;2.45;2.08;;;18.10;94.70;;;;;;5014245;28;20105;-70
2022/06/12 01:52:23;;;;;;;2.20;1.60;;;17.90;95.50;;;;;;5018432;28;20435;-70
2022/06/12 01:55:33;;;;;;;3.08;2.05;;;17.60;96.00;;;;;;5013730;28;20125;-71
2022/06/12 01:59:01;;;;;;;2.83;1.90;;;17.60;96.60;;;;;;5014074;28;20045;-70
2022/06/12 02:02:25;;;;;;;5.50;1.83;;;17.50;96.70;;;;;;5013448;28;20044;-70
2022/06/12 02:05:57;;;;;;;6.20;1.85;;;17.50;97.10;;;;;;5020244;28;20040;-70
2022/06/12 02:09:08;;;;;;;4.68;1.80;;;17.50;97.20;;;;;;5033361;28;20052;-70
2022/06/12 02:15:40;;;;;;;2.95;2.00;;;17.50;97.50;;;;;;5030768;28;20375;-70
2022/06/12 02:18:58;;;;;;;2.58;2.00;;;17.60;97.30;;;;;;5027360;28;20068;-70
2022/06/12 02:22:07;;;;;;;2.80;2.20;;;17.50;97.80;;;;;;5012594;28;20061;-70
2022/06/12 02:25:26;;;;;;;2.45;2.22;;;17.50;98.30;;;;;;5013404;28;20049;-70
2022/06/12 02:28:46;;;;;;;2.08;1.83;;;17.40;98.40;;;;;;5013134;28;20045;-70
2022/06/12 02:31:55;;;;;;;4.53;2.35;;;17.30;98.80;;;;;;5019973;28;20487;-68
2022/06/12 02:35:14;;;;;;;2.78;2.03;;;17.40;99.00;;;;;;5033336;28;20040;-70
2022/06/12 02:38:37;;;;;;;2.90;1.98;;;17.30;99.10;;;;;;5013363;28;20056;-70
2022/06/12 02:41:47;;;;;;;6.47;2.08;;;17.30;99.10;;;;;;5015798;28;20057;-70
2022/06/12 02:44:57;;;;;;;2.30;1.88;;;17.40;98.90;;;;;;5020462;28;20048;-70
2022/06/12 02:48:03;;;;;;;3.47;2.57;;;17.30;99.30;;;;;;5032553;28;20049;-69
2022/06/12 02:51:35;;;;;;;2.40;2.00;;;17.30;99.80;;;;;;5032189;28;20049;-69
2022/06/12 02:54:58;;;;;;;3.20;2.22;;;17.10;99.90;;;;;;5025676;28;20041;-70
2022/06/12 02:58:18;;;;;;;2.47;2.28;;;17.10;99.90;;;;;;5012196;28;20117;-70
2022/06/12 03:01:36;;;;;;;6.70;2.10;;;17.00;99.90;;;;;;5012312;28;20045;-70
2022/06/12 03:05:04;;;;;;;4.38;2.42;;;16.90;99.90;;;;;;5012675;28;20057;-70
2022/06/12 03:08:16;;;;;;;2.60;2.10;;;16.90;99.90;;;;;;5018792;28;20056;-70
2022/06/12 03:11:22;;;;;;;2.83;2.10;;;16.80;99.90;;;;;;5032023;28;20064;-70
2022/06/12 03:14:27;;;;;;;3.90;2.28;;;16.90;99.90;;;;;;5012682;28;20049;-69
2022/06/12 03:17:31;;;;;;;5.40;2.28;;;16.80;99.90;;;;;;5011314;28;20049;-70
2022/06/12 03:21:13;;;;;;;8.40;3.53;;;16.80;99.90;;;;;;5015999;28;20048;-69
2022/06/12 03:24:39;;;;;;;7.25;2.50;;;16.90;99.90;;;;;;5032076;28;20045;-70
2022/06/12 03:28:04;;;;;;;4.60;2.63;;;16.80;99.90;;;;;;5031521;28;20065;-69
2022/06/12 03:31:17;;;;;;;3.45;2.30;;;16.70;99.90;;;;;;5019718;28;20053;-70
2022/06/12 03:34:38;;;;;;;3.60;1.92;;;16.60;99.90;;;;;;5012834;28;20052;-70
2022/06/12 03:38:07;;;;;;;5.30;2.20;;;16.60;99.90;;;;;;5031907;28;20050;-69
2022/06/12 03:41:17;;;;;;;5.15;2.47;;;16.60;99.90;;;;;;5012340;28;20276;-70
2022/06/12 03:44:30;;;;;;;3.42;2.28;;;16.50;99.90;;;;;;5011789;28;20056;-69
2022/06/12 03:47:47;;;;;;;5.18;2.53;;;16.40;99.90;;;;;;5011624;28;20050;-70
2022/06/12 03:51:04;;;;;;;2.75;2.40;;;16.30;99.90;;;;;;5012290;28;20049;-69
2022/06/12 03:54:22;;;;;;;3.78;2.60;;;16.30;99.90;;;;;;5027942;28;20052;-69
2022/06/12 03:57:51;;;;;;;3.05;2.10;;;16.30;99.90;;;;;;5030326;28;20625;-69
2022/06/12 04:00:58;;;;;;;3.15;2.70;;;16.30;99.90;;;;;;5031237;28;20048;-69
2022/06/12 04:04:04;;;;;;;4.03;2.60;;;16.40;99.90;;;;;;5031215;28;20052;-69
2022/06/12 04:07:11;;;;;;;4.28;2.80;;;16.30;99.90;;;;;;5017294;28;20040;-70
2022/06/12 04:10:24;;;;;;;7.13;2.63;;;16.30;99.90;;;;;;5015442;28;20044;-70
2022/06/12 04:13:29;;;;;;;3.38;2.63;;;16.40;99.90;;;;;;5011307;28;20045;-69
2022/06/12 04:16:36;;;;;;;5.88;3.03;;;16.40;99.90;;;;;;5011338;28;20044;-70
2022/06/12 04:19:59;;;;;;;9.73;2.85;;;16.50;99.90;;;;;;5010804;28;20102;-70
2022/06/12 04:23:29;;;;;;;6.68;2.42;;;16.60;99.90;;;;;;5011021;28;20044;-70
2022/06/12 04:26:38;;;;;;;3.38;2.80;;;16.70;99.90;;;;;;5010906;28;20392;-70
2022/06/12 04:30:19;;;;;;;4.28;2.60;;;17.50;99.90;;;;;;5010975;28;20045;-70
2022/06/12 04:34:00;;;;;;;2.90;2.30;;;19.70;99.90;;;;;;5018158;28;20040;-70
2022/06/12 04:37:13;;;;;;;5.80;2.15;;;21.80;99.90;;;;;;4980123;28;20056;-70
2022/06/12 04:40:26;;;;;;;5.38;2.75;;;23.90;98.90;;;;;;5030881;28;20041;-70
2022/06/12 04:43:32;;;;;;;5.32;2.63;;;24.50;97.20;;;;;;5010512;28;20052;-71
2022/06/12 04:46:41;;;;;;;4.93;2.55;;;25.70;95.80;;;;;;5019028;28;20048;-69
2022/06/12 04:49:46;;;;;;;3.67;2.30;;;26.90;94.10;;;;;;5030965;28;20048;-70
2022/06/12 04:52:50;;;;;;;3.50;1.98;;;27.40;93.20;;;;;;5010672;28;20411;-70
2022/06/12 04:55:54;;;;;;;3.55;2.17;;;27.40;92.00;;;;;;5018552;28;20060;-70
2022/06/12 04:58:58;;;;;;;3.75;2.28;;;28.10;91.50;;;;;;5030522;28;20597;-70
2022/06/12 05:02:03;;;;;;;2.15;1.70;;;28.50;91.20;;;;;;5011201;28;20056;-70
2022/06/12 05:05:08;;;;;;;2.97;1.80;;;28.70;91.00;;;;;;5021229;28;20056;-70
2022/06/12 05:08:12;;;;;;;2.85;1.92;;;29.40;90.20;;;;;;5029857;28;20384;-70
2022/06/12 05:11:18;;;;;;;4.50;1.83;;;29.20;90.30;;;;;;5030656;28;20064;-70
2022/06/12 05:14:22;;;;;;;7.53;1.77;;;29.80;89.50;;;;;;5016569;28;20677;-69
2022/06/12 05:17:26;;;;;;;1.95;1.40;;;30.10;87.90;;;;;;5010521;28;20056;-70
2022/06/12 05:20:32;;;;;;;2.92;1.40;;;30.60;86.00;;;;;;5030832;28;20048;-70
2022/06/12 05:23:38;;;;;;;5.82;1.75;;;31.20;84.60;;;;;;5030118;28;20388;-70
2022/06/12 05:26:45;;;;;;;2.83;1.50;;;31.50;83.00;;;;;;5029182;28;20053;-69
2022/06/12 05:29:50;;;;;;;2.22;1.42;;;31.00;83.70;;;;;;5030664;28;20044;-69
2022/06/12 05:32:56;;;;;;;1.90;1.40;;;30.90;83.50;;;;;;5011220;28;20049;-70
2022/06/12 05:36:01;;;;;;;1.58;1.35;;;31.20;83.40;;;;;;5009687;28;20057;-69
2022/06/12 05:39:05;;;;;;;5.05;1.60;;;27.70;85.00;;;;;;5010328;28;20045;-69
2022/06/12 05:42:09;;;;;;;2.35;1.58;;;28.70;86.20;;;;;;5010828;28;20113;-70
2022/06/12 05:45:17;;;;;;;1.60;1.30;;;25.80;90.20;;;;;;5009327;28;20049;-70
2022/06/12 05:48:21;;;;;;;1.88;1.63;;;26.50;90.50;;;;;;5009850;28;20606;-70
2022/06/12 05:51:25;;;;;;;12.63;1.80;;;26.10;89.50;;;;;;5029288;28;20049;-70
2022/06/12 05:54:29;;;;;;;3.38;1.60;;;27.30;88.80;;;;;;5029130;28;20044;-69
2022/06/12 05:57:33;;;;;;;1.75;1.40;;;28.60;87.40;;;;;;5024761;28;20056;-70
2022/06/12 06:00:37;;;;;;;5.20;1.60;;;29.40;86.60;;;;;;5010647;28;20043;-70
2022/06/12 06:03:42;;;;;;;3.22;1.67;;;29.90;85.10;;;;;;5027342;28;20056;-69
2022/06/12 06:06:54;;;;;;;3.10;1.80;;;30.40;84.30;;;;;;5025082;28;20049;-71
2022/06/12 06:09:58;;;;;;;4.93;1.83;;;29.80;84.00;;;;;;5013212;28;20045;-70
2022/06/12 06:13:02;;;;;;;3.15;1.40;;;30.30;83.90;;;;;;5013241;28;20049;-69
2022/06/12 06:16:07;;;;;;;1.63;1.15;;;31.20;82.90;;;;;;5017400;28;20660;-70
2022/06/12 06:19:12;;;;;;;3.85;1.60;;;31.30;82.70;;;;;;5033554;28;20076;-70
2022/06/12 06:22:18;;;;;;;2.42;1.45;;;31.50;82.80;;;;;;5033228;28;20052;-70
2022/06/12 06:25:24;;;;;;;3.45;1.40;;;31.70;81.90;;;;;;5032026;28;20491;-71
2022/06/12 06:28:28;;;;;;;1.35;1.25;;;31.60;81.30;;;;;;5032020;28;20495;-71
2022/06/12 06:31:33;;;;;;;2.90;1.23;;;31.90;81.60;;;;;;5013767;28;20049;-69
2022/06/12 06:34:41;;;;;;;2.38;1.63;;;30.30;83.10;;;;;;5011815;28;20041;-70
2022/06/12 06:37:47;;;;;;;3.85;1.92;;;30.50;83.30;;;;;;5012655;28;20057;-69
2022/06/12 06:40:51;;;;;;;3.60;1.23;;;29.10;83.80;;;;;;5013161;28;20511;-70
2022/06/12 06:47:18;;;;;;;3.00;1.67;;;28.10;87.20;;;;;;5027061;28;20041;-69
2022/06/12 06:50:23;;;;;;;1.50;1.20;;;28.80;85.10;;;;;;5032666;28;20048;-70
2022/06/12 06:53:27;;;;;;;3.40;1.45;;;30.20;84.50;;;;;;5032076;28;20053;-70
2022/06/12 06:56:32;;;;;;;1.40;1.17;;;30.80;82.50;;;;;;5031037;28;20045;-70
2022/06/12 06:59:37;;;;;;;1.52;1.02;;;30.70;84.10;;;;;;5032992;28;20049;-69
2022/06/12 07:02:41;;;;;;;1.92;1.25;;;31.10;82.40;;;;;;5012902;28;20049;-70
2022/06/12 07:05:46;;;;;;;2.05;1.38;;;31.10;82.30;;;;;;5018639;28;20392;-70
2022/06/12 07:08:50;;;;;;;2.30;1.45;;;32.20;80.70;;;;;;5032117;28;20056;-70
2022/06/12 07:11:54;;;;;;;1.52;1.20;;;31.20;79.00;;;;;;5032350;28;20049;-69
2022/06/12 07:14:59;;;;;;;1.85;1.40;;;31.20;82.10;;;;;;5031571;28;20052;-69
2022/06/12 07:18:04;;;;;;;2.05;1.10;;;32.10;78.20;;;;;;5030489;28;20044;-70
2022/06/12 07:21:08;;;;;;;2.00;1.05;;;32.80;78.80;;;;;;5012211;28;20420;-69
2022/06/12 07:24:13;;;;;;;2.47;1.10;;;33.60;79.00;;;;;;5024205;28;20036;-70
2022/06/12 07:27:18;;;;;;;1.63;1.05;;;32.90;78.10;;;;;;5026597;28;20049;-70
2022/06/12 07:30:23;;;;;;;2.25;1.27;;;33.20;78.50;;;;;;5024335;28;20045;-70
2022/06/12 07:33:27;;;;;;;1.65;1.00;;;34.10;78.30;;;;;;5025467;28;20053;-71
2022/06/12 07:36:31;;;;;;;1.38;0.90;;;33.80;77.30;;;;;;5030240;28;20049;-70
2022/06/12 07:39:35;;;;;;;2.90;1.05;;;34.00;77.70;;;;;;5032148;28;20037;-70
2022/06/12 07:42:39;;;;;;;3.40;1.55;;;35.50;76.60;;;;;;5011932;28;20041;-70
2022/06/12 07:45:44;;;;;;;1.30;0.90;;;36.40;75.20;;;;;;5016792;28;20048;-71
2022/06/12 07:48:49;;;;;;;1.58;1.08;;;34.70;74.80;;;;;;5032236;28;20048;-70
2022/06/12 07:51:55;;;;;;;4.13;1.10;;;35.30;75.00;;;;;;5011678;28;20380;-71
2022/06/12 07:54:59;;;;;;;2.97;0.90;;;35.70;75.60;;;;;;5011747;28;20503;-69
2022/06/12 07:58:04;;;;;;;2.05;1.10;;;33.80;75.80;;;;;;5011368;28;20057;-69
2022/06/12 08:01:10;;;;;;;2.53;1.00;;;33.70;77.30;;;;;;5011889;28;20127;-70
2022/06/12 08:04:14;;;;;;;2.53;0.95;;;35.10;77.60;;;;;;5025295;28;20040;-70
2022/06/12 08:07:20;;;;;;;3.65;1.27;;;36.60;74.60;;;;;;5029992;28;20388;-70
2022/06/12 08:10:25;;;;;;;1.30;1.17;;;36.70;73.90;;;;;;5011559;28;20049;-70
2022/06/12 08:13:30;;;;;;;4.38;1.17;;;37.40;74.70;;;;;;5027545;28;20757;-70
2022/06/12 08:16:34;;;;;;;3.30;1.10;;;35.80;71.80;;;;;;5029728;28;20044;-69
2022/06/12 08:23:26;;;;;;;2.20;1.00;;;38.30;72.80;;;;;;5028055;28;20052;-70
2022/06/12 08:26:33;;;;;;;1.73;0.90;;;39.70;70.20;;;;;;5016469;28;20056;-67
2022/06/12 08:29:38;;;;;;;2.13;0.88;;;40.30;68.80;;;;;;5011270;28;20064;-67
2022/06/12 08:32:44;;;;;;;2.22;0.88;;;40.50;67.70;;;;;;5011553;28;20053;-68
2022/06/12 08:35:48;;;;;;;2.53;1.00;;;41.40;67.70;;;;;;5010783;28;20049;-69
2022/06/12 08:38:52;;;;;;;2.30;1.10;;;42.10;66.60;;;;;;5010684;28;20049;-70
2022/06/12 08:42:18;;;;;;;2.42;0.90;;;42.60;65.30;;;;;;5011736;28;20396;-68
2022/06/12 08:45:26;;;;;;;3.10;1.10;;;43.20;64.30;;;;;;5009823;28;20053;-68
2022/06/12 08:48:50;;;;;;;1.58;0.77;;;43.40;64.30;;;;;;5010073;28;20049;-67
2022/06/12 08:52:02;;;;;;;2.03;1.17;;;43.80;62.70;;;;;;5012269;28;20049;-68
2022/06/12 08:55:18;;;;;;;4.20;0.88;;;43.50;62.20;;;;;;5030938;28;20052;-68
2022/06/12 08:58:41;;;;;;;1.25;0.70;;;43.50;61.50;;;;;;5029259;28;20029;-68
2022/06/12 09:01:45;;;;;;;2.08;0.80;;;44.80;60.30;;;;;;5029992;28;20515;-68
2022/06/12 09:04:50;;;;;;;0.73;0.73;;;45.30;59.60;;;;;;5031026;28;20045;-65
2022/06/12 09:08:03;;;;;;;1.50;0.90;;;43.80;58.00;;;;;;5029480;28;20048;-68
2022/06/12 09:11:35;;;;;;;1.60;0.80;;;41.10;57.30;;;;;;5022063;28;20068;-71
2022/06/12 09:14:58;;;;;;;5.10;0.90;;;39.00;59.20;;;;;;5011340;28;20058;-70
2022/06/12 09:18:02;;;;;;;4.10;0.90;;;40.10;60.90;;;;;;5009955;28;20049;-67
2022/06/12 09:21:19;;;;;;;2.90;1.00;;;41.50;60.10;;;;;;5026151;28;20538;-68
2022/06/12 09:24:42;;;;;;;3.33;1.00;;;44.20;59.30;;;;;;5029930;28;20045;-68
2022/06/12 09:28:01;;;;;;;1.63;0.80;;;45.90;58.20;;;;;;5029541;28;20392;-69
2022/06/12 09:31:10;;;;;;;1.60;1.00;;;46.60;56.40;;;;;;5030681;28;20040;-67
2022/06/12 09:34:39;;;;;;;1.65;1.05;;;43.80;55.00;;;;;;5029630;28;20048;-68
2022/06/12 09:38:21;;;;;;;6.05;1.95;;;44.50;57.00;;;;;;5028752;28;20044;-69
2022/06/12 09:41:41;;;;;;;1.80;0.88;;;46.20;55.90;;;;;;5032505;28;20052;-68
2022/06/12 09:45:03;;;;;;;3.08;1.00;;;44.30;54.20;;;;;;5034257;28;20036;-68
2022/06/12 09:48:21;;;;;;;1.02;0.93;;;46.20;56.70;;;;;;5032819;28;20040;-69
2022/06/12 09:52:02;;;;;;;2.90;0.70;;;47.60;55.20;;;;;;5032956;28;20060;-67
2022/06/12 09:55:06;;;;;;;1.00;0.88;;;47.90;55.00;;;;;;5032297;28;20048;-71
2022/06/12 09:58:20;;;;;;;1.98;0.77;;;40.20;55.80;;;;;;5013981;28;20048;-69
2022/06/12 10:01:32;;;;;;;3.60;0.80;;;43.00;56.20;;;;;;5012745;28;20037;-68
2022/06/12 10:04:37;;;;;;;1.23;0.90;;;44.30;56.60;;;;;;5012281;28;20048;-70
2022/06/12 10:07:46;;;;;;;2.72;0.77;;;45.60;56.40;;;;;;5013354;28;20496;-69
2022/06/12 10:11:25;;;;;;;4.80;0.80;;;45.80;55.00;;;;;;5033304;28;20036;-69
2022/06/12 10:14:44;;;;;;;1.25;0.80;;;44.70;54.40;;;;;;5033089;28;20052;-67
2022/06/12 10:18:03;;;;;;;2.15;1.00;;;46.40;54.50;;;;;;5028857;28;20041;-68
2022/06/12 10:21:11;;;;;;;2.65;0.75;;;48.10;54.50;;;;;;5014052;28;20049;-69
2022/06/12 10:24:15;;;;;;;3.90;0.90;;;48.30;53.50;;;;;;5013000;28;20048;-69
2022/06/12 10:27:21;;;;;;;2.97;0.80;;;47.50;53.30;;;;;;5012047;28;20124;-69
2022/06/12 10:30:59;;;;;;;4.57;0.90;;;46.70;54.40;;;;;;5013354;28;20052;-67
2022/06/12 10:34:28;;;;;;;1.30;0.90;;;47.20;54.70;;;;;;5013022;28;20049;-68
2022/06/12 10:37:32;;;;;;;1.13;0.90;;;46.70;54.20;;;;;;5030882;28;20049;-69
2022/06/12 10:40:36;;;;;;;1.73;0.93;;;46.60;54.70;;;;;;5021337;28;20984;-68
2022/06/12 10:43:47;;;;;;;4.88;0.73;;;46.50;54.20;;;;;;5013569;28;20377;-69
2022/06/12 10:46:52;;;;;;;1.90;0.90;;;45.70;52.60;;;;;;5012099;28;20057;-70
2022/06/12 10:50:21;;;;;;;4.03;1.20;;;43.10;56.00;;;;;;5022247;28;20480;-69
2022/06/12 10:53:28;;;;;;;2.83;1.00;;;43.90;55.30;;;;;;5030481;28;20044;-67
2022/06/12 10:57:02;;;;;;;2.00;1.02;;;43.70;55.00;;;;;;5012555;28;20480;-68
2022/06/12 11:00:10;;;;;;;1.17;0.80;;;43.90;56.10;;;;;;5031892;28;20045;-70
2022/06/12 11:03:35;;;;;;;1.50;1.00;;;44.20;54.80;;;;;;5023311;28;20049;-69
2022/06/12 11:07:06;;;;;;;0.80;0.80;;;44.40;55.50;;;;;;5011953;28;20041;-70
2022/06/12 11:10:27;;;;;;;3.40;0.98;;;43.90;55.30;;;;;;5012987;28;20048;-68
2022/06/12 11:14:03;;;;;;;1.98;1.00;;;42.30;55.50;;;;;;5012234;28;20583;-69
2022/06/12 11:17:42;;;;;;;0.93;0.77;;;41.30;57.50;;;;;;5023795;28;20384;-71
2022/06/12 11:20:58;;;;;;;4.55;1.00;;;41.60;57.60;;;;;;5032289;28;20045;-68
2022/06/12 11:24:14;;;;;;;0.80;0.70;;;41.90;57.40;;;;;;5032164;28;20048;-69
2022/06/12 11:27:44;;;;;;;2.35;1.10;;;41.80;57.30;;;;;;5012369;28;20061;-68
2022/06/12 11:31:05;;;;;;;;;;;41.60;57.20;;;;;;5017050;28;20129;-70
2022/06/12 11:34:09;;;;;;;4.88;1.38;;;41.80;58.20;;;;;;5011352;28;19917;-70
2022/06/12 11:37:44;;;;;;;3.47;1.23;;;42.10;56.80;;;;;;5011863;28;20045;-68
2022/06/12 11:40:51;;;;;;;2.85;1.10;;;42.70;57.40;;;;;;5012069;28;20053;-70
2022/06/12 11:44:16;;;;;;;1.65;1.10;;;42.60;56.10;;;;;;5027534;28;20044;-68
2022/06/12 11:47:26;;;;;;;1.48;1.00;;;42.30;56.70;;;;;;5025028;28;20836;-68
2022/06/12 11:50:44;;;;;;;3.80;1.10;;;41.70;56.40;;;;;;5030902;28;20049;-68
2022/06/12 11:54:13;;;;;;;3.40;1.10;;;41.70;56.40;;;;;;5010733;28;20057;-68
2022/06/12 11:57:26;;;;;;;1.23;1.13;;;40.70;57.10;;;;;;5015222;28;20053;-69
2022/06/12 12:00:40;;;;;;;1.95;1.00;;;40.30;58.30;;;;;;5011343;28;20392;-69
2022/06/12 12:03:57;;;;;;;4.93;1.30;;;40.70;58.20;;;;;;5031094;28;20044;-69
2022/06/12 12:07:13;;;;;;;2.60;1.10;;;40.40;59.00;;;;;;5013746;28;20495;-68
2022/06/12 12:10:20;;;;;;;2.25;1.35;;;39.80;59.10;;;;;;5016006;28;20053;-73
2022/06/12 12:13:42;;;;;;;2.10;1.27;;;39.30;58.20;;;;;;5011064;28;20048;-69
2022/06/12 12:16:59;;;;;;;3.75;1.42;;;39.40;59.30;;;;;;5011203;28;20060;-68
2022/06/12 12:20:29;;;;;;;4.60;1.30;;;39.30;58.90;;;;;;5015291;28;20037;-69
2022/06/12 12:23:39;;;;;;;3.73;1.20;;;39.50;58.60;;;;;;5016463;28;20044;-69
2022/06/12 12:26:45;;;;;;;;;;;39.20;58.60;;;;;;5031290;28;20060;-68
2022/06/12 12:29:49;;;;;;;1.30;1.00;;;39.20;59.50;;;;;;5011471;28;20344;-69
2022/06/12 12:32:57;;;;;;;2.38;1.10;;;39.30;60.70;;;;;;5014925;28;20045;-69
2022/06/12 12:43:05;;;;;;;3.22;1.20;;;39.00;59.40;;;;;;5012991;28;20053;-68
2022/06/12 12:46:09;;;;;;;1.60;1.27;;;39.00;59.30;;;;;;5021628;28;20039;-68
2022/06/12 12:49:29;;;;;;;3.67;1.02;;;39.00;59.70;;;;;;5030486;28;20068;-68
2022/06/12 12:52:59;;;;;;;5.38;1.25;;;39.10;60.10;;;;;;5011213;28;20045;-68
2022/06/12 12:56:11;;;;;;;;;;;38.80;60.20;;;;;;5025804;28;20052;-70
2022/06/12 12:59:15;;;;;;;4.47;1.60;;;38.60;60.00;;;;;;5020965;28;19916;-71
2022/06/12 13:02:24;;;;;;;1.60;1.00;;;38.30;59.60;;;;;;5011274;28;20052;-68
2022/06/12 13:05:39;;;;;;;2.25;1.20;;;38.10;60.50;;;;;;5010197;28;20033;-68
2022/06/12 13:09:03;;;;;;;3.95;1.20;;;37.40;60.10;;;;;;5015190;28;20037;-69
2022/06/12 13:12:52;;;;;;;1.77;1.30;;;37.00;61.90;;;;;;5015106;28;20052;-68
2022/06/12 13:16:03;;;;;;;2.28;1.20;;;36.80;60.60;;;;;;5032462;28;20056;-69
2022/06/12 13:19:41;;;;;;;4.20;1.20;;;36.90;62.00;;;;;;5034883;28;20057;-69
2022/06/12 13:23:04;;;;;;;1.73;1.38;;;37.00;61.20;;;;;;5033979;28;20044;-70
2022/06/12 13:26:12;;;;;;;1.38;1.08;;;36.80;61.00;;;;;;5028629;28;20474;-69
2022/06/12 13:29:19;;;;;;;2.00;1.30;;;36.80;61.10;;;;;;5034896;28;20057;-70
2022/06/12 13:32:33;;;;;;;2.55;1.25;;;36.50;61.00;;;;;;5033814;28;20056;-71
2022/06/12 13:35:44;;;;;;;6.93;2.00;;;36.60;60.80;;;;;;5025104;28;20053;-69
2022/06/12 13:39:01;;;;;;;4.35;1.40;;;36.20;61.00;;;;;;5017127;28;20047;-70
2022/06/12 13:42:12;;;;;;;2.60;1.25;;;36.00;61.20;;;;;;5014520;28;20049;-71
2022/06/12 13:45:23;;;;;;;1.35;1.13;;;35.90;61.90;;;;;;5025206;28;20032;-69
2022/06/12 13:48:36;;;;;;;3.63;1.40;;;35.60;61.70;;;;;;5024853;28;20052;-70
2022/06/12 13:51:50;;;;;;;4.78;1.15;;;35.50;62.40;;;;;;5014462;28;20048;-68
2022/06/12 13:54:53;;;;;;;1.15;1.05;;;35.50;62.30;;;;;;5013848;28;20049;-71
2022/06/12 13:58:08;;;;;;;2.38;1.20;;;35.50;62.50;;;;;;5012894;28;20704;-71
2022/06/12 14:01:26;;;;;;;1.58;1.30;;;35.60;61.80;;;;;;5013380;28;20064;-68
2022/06/12 14:04:30;;;;;;;1.70;1.23;;;35.40;61.10;;;;;;5021579;28;20392;-70
2022/06/12 14:07:34;;;;;;;4.78;1.20;;;35.30;61.60;;;;;;5028167;28;20518;-69
2022/06/12 14:10:46;;;;;;;4.05;1.30;;;35.00;60.80;;;;;;5028719;28;20064;-67
2022/06/12 14:13:51;;;;;;;1.90;1.20;;;34.80;61.80;;;;;;5031733;28;20483;-67
2022/06/12 14:16:55;;;;;;;3.30;1.17;;;34.80;62.20;;;;;;5023878;28;20060;-69
2022/06/12 14:20:02;;;;;;;2.70;1.65;;;35.00;62.70;;;;;;5023255;28;20044;-70
2022/06/12 14:23:24;;;;;;;1.77;1.25;;;35.00;62.00;;;;;;5033544;28;20045;-69
2022/06/12 14:26:33;;;;;;;3.28;1.20;;;35.00;62.60;;;;;;5023903;28;20072;-69
2022/06/12 14:29:38;;;;;;;2.88;1.20;;;35.00;60.40;;;;;;5024926;28;20053;-69
2022/06/12 14:32:46;;;;;;;2.30;1.23;;;35.00;60.40;;;;;;5031384;28;20036;-70
2022/06/12 14:35:49;;;;;;;2.05;1.52;;;34.80;60.30;;;;;;5025798;28;20040;-68
2022/06/12 14:38:54;;;;;;;3.38;1.30;;;34.50;60.00;;;;;;5024440;28;20040;-69
2022/06/12 14:42:10;;;;;;;2.97;1.30;;;34.50;60.90;;;;;;5019785;28;20053;-68
2022/06/12 14:45:16;;;;;;;2.97;1.40;;;34.50;62.50;;;;;;5003318;28;20754;-68
2022/06/12 14:48:25;;;;;;;2.42;1.23;;;34.20;62.10;;;;;;5023211;28;20037;-70
2022/06/12 14:51:29;;;;;;;4.03;1.10;;;33.80;62.40;;;;;;5024231;28;20049;-69
2022/06/12 14:54:34;;;;;;;2.10;1.40;;;33.70;62.40;;;;;;5021694;28;20048;-68
2022/06/12 14:57:38;;;;;;;3.00;1.00;;;33.70;63.00;;;;;;5030727;28;20048;-68
2022/06/12 15:00:43;;;;;;;3.97;1.35;;;33.60;61.60;;;;;;5024676;28;20052;-70
2022/06/12 15:03:51;;;;;;;2.45;1.35;;;33.60;61.40;;;;;;5026241;28;20472;-68
2022/06/12 15:06:56;;;;;;;4.28;1.13;;;33.80;61.00;;;;;;5020005;28;20075;-69
2022/06/12 15:10:00;;;;;;;2.97;1.15;;;33.60;60.30;;;;;;5025912;28;20133;-69
2022/06/12 15:13:04;;;;;;;2.08;1.10;;;33.60;62.50;;;;;;5019629;28;20052;-69
2022/06/12 15:16:11;;;;;;;4.13;1.20;;;33.60;62.40;;;;;;5024465;28;20041;-70
2022/06/12 15:19:15;;;;;;;4.45;1.67;;;33.50;62.20;;;;;;5020520;28;20041;-70
2022/06/12 15:22:21;;;;;;;3.78;1.60;;;33.30;61.90;;;;;;5029207;28;20049;-69
2022/06/12 15:32:36;;;;;;;2.03;1.00;;;33.20;61.90;;;;;;5006411;28;20049;-71
2022/06/12 15:35:41;;;;;;;3.55;1.23;;;33.00;61.50;;;;;;4997602;28;20149;-71
2022/06/12 15:38:45;;;;;;;2.85;1.40;;;32.90;61.20;;;;;;5031658;28;20048;-70
2022/06/12 15:41:49;;;;;;;1.23;1.13;;;32.80;61.10;;;;;;5012015;28;20044;-71
2022/06/12 15:44:53;;;;;;;1.90;1.10;;;32.70;62.00;;;;;;5010686;28;20057;-71
2022/06/12 15:47:58;;;;;;;1.63;1.10;;;32.70;63.50;;;;;;5011658;28;20045;-71
2022/06/12 15:51:01;;;;;;;3.70;1.27;;;32.70;63.30;;;;;;5010860;28;20630;-70
2022/06/12 15:54:07;;;;;;;4.47;1.13;;;32.70;62.80;;;;;;5021194;28;20048;-72
2022/06/12 15:57:11;;;;;;;1.52;1.42;;;32.70;64.60;;;;;;5031244;28;20044;-71
2022/06/12 16:00:16;;;;;;;3.10;1.40;;;32.50;64.50;;;;;;5011769;28;20045;-72
2022/06/12 16:03:21;;;;;;;2.00;1.25;;;32.40;64.70;;;;;;5018802;28;20040;-70
2022/06/12 16:06:26;;;;;;;2.30;1.30;;;32.40;62.00;;;;;;5030564;28;20044;-70
2022/06/12 16:09:30;;;;;;;1.52;0.98;;;32.20;63.00;;;;;;5031853;28;20053;-71
2022/06/12 16:12:34;;;;;;;4.70;1.05;;;32.20;64.10;;;;;;5020444;28;20499;-71
2022/06/12 16:15:38;;;;;;;1.17;1.00;;;32.20;62.30;;;;;;5011816;28;20056;-70
2022/06/12 16:18:42;;;;;;;2.17;1.48;;;32.10;62.40;;;;;;5011843;28;20056;-71
2022/06/12 16:21:46;;;;;;;1.83;1.17;;;32.10;63.00;;;;;;5011864;28;20053;-71
2022/06/12 16:24:50;;;;;;;3.10;1.55;;;31.90;63.70;;;;;;5016436;28;20053;-72
2022/06/12 16:27:54;;;;;;;2.05;1.30;;;31.70;63.80;;;;;;5031010;28;20591;-70
2022/06/12 16:30:58;;;;;;;3.08;1.23;;;31.70;64.50;;;;;;5016377;28;20397;-70
2022/06/12 16:34:03;;;;;;;3.20;1.35;;;31.60;64.80;;;;;;5013066;28;20053;-70
2022/06/12 16:37:08;;;;;;;3.55;1.25;;;31.50;65.30;;;;;;5030853;28;20408;-69
2022/06/12 16:40:17;;;;;;;1.58;1.25;;;31.40;66.00;;;;;;5015027;28;20125;-71
2022/06/12 16:43:22;;;;;;;1.60;1.13;;;31.40;66.60;;;;;;5015677;28;20049;-71
2022/06/12 16:46:27;;;;;;;3.70;1.60;;;31.40;66.80;;;;;;5011144;28;20057;-70
2022/06/12 16:49:31;;;;;;;2.35;1.50;;;31.30;64.80;;;;;;5030206;28;20049;-71
2022/06/12 16:52:35;;;;;;;2.72;1.52;;;31.20;65.90;;;;;;5029640;28;20056;-71
2022/06/12 16:55:40;;;;;;;1.85;1.60;;;31.10;65.90;;;;;;5030437;28;20041;-69
2022/06/12 16:58:44;;;;;;;1.65;1.30;;;31.00;64.90;;;;;;5011308;28;20076;-71
2022/06/12 17:01:48;;;;;;;5.20;1.67;;;31.10;65.80;;;;;;5020288;28;20048;-70
2022/06/12 17:04:52;;;;;;;3.88;1.50;;;31.00;65.50;;;;;;5027401;28;20076;-71
2022/06/12 17:07:56;;;;;;;2.95;1.48;;;31.00;66.60;;;;;;5010381;28;20061;-70